createdAt,value
2017-09-02T03:30:21.952Z,15.90
2017-09-02T03:32:49.579Z,15.90
2017-09-02T03:35:17.172Z,16.00
2017-09-02T03:37:45.164Z,16.00
2017-09-02T03:40:12.766Z,16.00
2017-09-02T03:42:40.361Z,16.10
2017-09-02T03:45:08.264Z,16.10
2017-09-02T03:47:35.865Z,16.10
2017-09-02T03:50:04.221Z,16.10
2017-09-02T03:52:32.180Z,16.00
2017-09-02T03:54:59.785Z,16.00
2017-09-02T03:57:27.388Z,16.00
2017-09-02T03:59:55.456Z,16.00
2017-09-02T04:02:23.084Z,15.90
2017-09-02T04:04:50.681Z,15.90
2017-09-02T04:07:18.721Z,15.90
2017-09-02T04:09:46.325Z,15.80
2017-09-02T04:12:13.934Z,15.90
2017-09-02T04:14:41.940Z,15.90
2017-09-02T04:17:09.553Z,15.90
2017-09-02T04:19:37.157Z,15.80
2017-09-02T04:22:05.137Z,15.70
2017-09-02T04:24:32.731Z,15.70
2017-09-02T04:27:00.320Z,15.70
2017-09-02T04:29:28.286Z,15.70
2017-09-02T04:31:55.950Z,15.70
2017-09-02T04:34:23.548Z,15.70
2017-09-02T04:36:51.563Z,15.70
2017-09-02T04:39:19.166Z,15.80
2017-09-02T04:41:46.766Z,15.80
2017-09-02T04:44:14.821Z,15.70
2017-09-02T04:46:42.425Z,15.70
2017-09-02T04:49:10.013Z,15.60
2017-09-02T04:51:38.115Z,15.70
2017-09-02T04:56:39.988Z,15.70
2017-09-02T04:59:07.577Z,15.70
2017-09-02T05:01:35.182Z,15.80
2017-09-02T05:04:03.140Z,15.70
2017-09-02T05:06:30.737Z,15.70
2017-09-02T05:08:58.324Z,15.80
2017-09-02T05:11:26.372Z,15.80
2017-09-02T05:13:53.963Z,15.80
2017-09-02T05:16:21.554Z,15.80
2017-09-02T05:18:49.670Z,15.90
2017-09-02T05:21:17.264Z,15.90
2017-09-02T05:23:44.872Z,16.00
2017-09-02T05:26:12.863Z,16.00
2017-09-02T05:28:40.582Z,16.00
2017-09-02T05:31:08.173Z,16.00
2017-09-02T05:33:36.175Z,16.00
2017-09-02T05:36:03.846Z,16.00
2017-09-02T05:38:31.441Z,16.00
2017-09-02T05:40:59.532Z,15.90
2017-09-02T05:43:27.146Z,16.00
2017-09-02T05:45:54.742Z,16.00
2017-09-02T05:48:22.700Z,16.00
2017-09-02T05:50:50.322Z,16.00
2017-09-02T05:53:17.931Z,16.00
2017-09-02T05:55:45.921Z,16.00
2017-09-02T05:58:13.521Z,16.00
2017-09-02T06:00:41.124Z,16.10
2017-09-02T06:03:09.214Z,16.10
2017-09-02T06:05:36.787Z,16.10
2017-09-02T06:08:04.383Z,16.10
2017-09-02T06:10:32.349Z,16.10
2017-09-02T06:12:59.946Z,16.10
2017-09-02T06:15:27.576Z,16.10
2017-09-02T06:17:55.550Z,16.10
2017-09-02T06:20:23.213Z,16.10
2017-09-02T06:22:50.843Z,16.10
2017-09-02T06:25:18.809Z,16.20
2017-09-02T06:27:46.419Z,16.20
2017-09-02T06:30:14.025Z,16.20
2017-09-02T06:32:42.074Z,16.30
2017-09-02T06:35:09.676Z,16.30
2017-09-02T06:37:37.366Z,16.30
2017-09-02T06:40:06.290Z,16.30
2017-09-02T06:42:33.931Z,16.40
2017-09-02T06:45:01.526Z,16.40
2017-09-02T06:47:29.586Z,16.40
2017-09-02T06:49:57.184Z,16.50
2017-09-02T06:52:24.789Z,16.60
2017-09-02T06:54:52.760Z,16.60
2017-09-02T06:57:20.378Z,16.70
2017-09-02T06:59:48.003Z,16.70
2017-09-02T07:02:16.069Z,16.80
2017-09-02T07:04:43.710Z,16.80
2017-09-02T07:07:11.322Z,16.90
2017-09-02T07:09:39.387Z,16.90
2017-09-02T07:12:07.019Z,16.90
2017-09-02T07:14:34.652Z,16.90
2017-09-02T07:17:02.607Z,16.90
2017-09-02T07:19:30.222Z,17.00
2017-09-02T07:21:57.822Z,17.10
2017-09-02T07:24:25.803Z,17.10
2017-09-02T07:26:53.419Z,17.10
2017-09-02T07:29:21.018Z,17.10
2017-09-02T07:31:49.032Z,17.10
2017-09-02T07:34:16.628Z,17.20
2017-09-02T07:36:44.231Z,17.20
2017-09-02T07:39:12.258Z,17.30
2017-09-02T07:41:39.880Z,17.40
2017-09-02T07:44:07.489Z,17.50
2017-09-02T07:46:35.512Z,17.60
2017-09-02T07:49:03.156Z,17.60
2017-09-02T07:51:30.761Z,17.60
2017-09-02T07:53:58.816Z,17.60
2017-09-02T07:56:26.423Z,17.60
2017-09-02T07:58:54.026Z,17.70
2017-09-02T08:01:22.092Z,17.90
2017-09-02T08:03:49.747Z,18.00
2017-09-02T08:06:17.357Z,18.10
2017-09-02T08:08:45.406Z,18.10
2017-09-02T08:11:13.017Z,18.10
2017-09-02T08:13:40.623Z,18.20
2017-09-02T08:16:08.694Z,18.30
2017-09-02T08:18:36.326Z,18.40
2017-09-02T08:21:03.929Z,18.40
2017-09-02T08:23:31.973Z,18.40
2017-09-02T08:25:59.587Z,18.40
2017-09-02T08:28:27.193Z,18.50
2017-09-02T08:30:55.160Z,18.60
2017-09-02T08:33:22.774Z,18.60
2017-09-02T08:35:50.415Z,18.60
2017-09-02T08:38:18.371Z,18.50
2017-09-02T08:40:45.966Z,18.50
2017-09-02T08:43:13.557Z,18.60
2017-09-02T08:45:41.557Z,18.60
2017-09-02T08:48:09.142Z,18.60
2017-09-02T08:50:36.743Z,18.70
2017-09-02T08:53:04.840Z,18.80
2017-09-02T08:55:32.434Z,19.00
2017-09-02T08:58:00.026Z,19.20
2017-09-02T09:00:28.039Z,19.30
2017-09-02T09:02:55.649Z,19.40
2017-09-02T09:05:23.252Z,19.40
2017-09-02T09:07:51.244Z,19.50
2017-09-02T09:10:18.843Z,19.40
2017-09-02T09:12:46.450Z,19.40
2017-09-02T09:15:14.429Z,19.40
2017-09-02T09:17:42.039Z,19.50
2017-09-02T09:20:09.650Z,19.60
2017-09-02T09:22:38.418Z,19.90
2017-09-02T09:25:06.014Z,19.90
2017-09-02T09:27:33.643Z,20.10
2017-09-02T09:30:01.752Z,20.30
2017-09-02T09:32:29.365Z,20.40
2017-09-02T09:34:56.974Z,20.30
2017-09-02T09:37:25.007Z,20.30
2017-09-02T09:39:52.664Z,20.40
2017-09-02T09:42:20.262Z,20.50
2017-09-02T09:44:48.226Z,20.60
2017-09-02T09:47:15.885Z,20.30
2017-09-02T09:49:43.491Z,20.00
2017-09-02T09:52:11.494Z,19.90
2017-09-02T09:54:39.106Z,19.70
2017-09-02T09:57:06.709Z,19.60
2017-09-02T09:59:34.694Z,19.60
2017-09-02T10:02:02.290Z,19.70
2017-09-02T10:04:29.902Z,19.70
2017-09-02T10:06:57.880Z,19.70
2017-09-02T10:09:25.480Z,19.60
2017-09-02T10:11:53.113Z,19.50
2017-09-02T10:14:21.184Z,19.30
2017-09-02T10:16:48.789Z,19.20
2017-09-02T10:19:16.402Z,19.20
2017-09-02T10:21:44.666Z,19.10
2017-09-02T10:24:12.274Z,19.20
2017-09-02T10:26:39.923Z,19.30
2017-09-02T10:29:07.953Z,19.40
2017-09-02T10:31:35.575Z,19.40
2017-09-02T10:34:03.199Z,19.50
2017-09-02T10:36:31.169Z,19.50
2017-09-02T10:38:58.774Z,19.60
2017-09-02T10:41:26.374Z,20.00
2017-09-02T10:43:54.336Z,20.20
2017-09-02T10:46:21.937Z,20.50
2017-09-02T10:48:49.665Z,20.40
2017-09-02T10:51:17.730Z,20.40
2017-09-02T10:53:45.325Z,20.50
2017-09-02T10:56:12.929Z,20.80
2017-09-02T10:58:40.927Z,20.90
2017-09-02T11:01:08.554Z,21.00
2017-09-02T11:03:36.155Z,21.00
2017-09-02T11:06:04.135Z,20.90
2017-09-02T11:08:31.876Z,20.60
2017-09-02T11:10:59.490Z,20.60
2017-09-02T11:13:27.442Z,20.70
2017-09-02T11:15:55.044Z,20.70
2017-09-02T11:18:22.656Z,20.70
2017-09-02T11:20:50.710Z,20.60
2017-09-02T11:23:18.312Z,20.60
2017-09-02T11:25:46.895Z,20.60
2017-09-02T11:28:14.876Z,20.60
2017-09-02T11:30:42.466Z,20.50
2017-09-02T11:33:10.069Z,20.40
2017-09-02T11:35:38.474Z,20.40
2017-09-02T11:38:06.075Z,20.40
2017-09-02T11:40:33.681Z,20.50
2017-09-02T11:43:01.689Z,20.70
2017-09-02T11:45:29.337Z,20.80
2017-09-02T11:47:56.936Z,20.70
2017-09-02T11:50:24.997Z,20.50
2017-09-02T11:52:52.593Z,20.40
2017-09-02T11:55:20.212Z,20.20
2017-09-02T11:57:48.286Z,19.70
2017-09-02T12:00:15.877Z,19.60
2017-09-02T12:02:43.489Z,19.80
2017-09-02T12:05:11.463Z,19.90
2017-09-02T12:07:39.068Z,20.00
2017-09-02T12:10:07.444Z,20.00
2017-09-02T12:12:35.497Z,19.90
2017-09-02T12:15:03.126Z,19.90
2017-09-02T12:17:30.728Z,19.80
2017-09-02T12:19:58.680Z,19.60
2017-09-02T12:22:26.288Z,19.50
2017-09-02T12:24:53.909Z,19.60
2017-09-02T12:27:21.990Z,19.60
2017-09-02T12:29:49.601Z,19.30
2017-09-02T12:32:17.808Z,18.80
2017-09-02T12:34:46.102Z,18.30
2017-09-02T12:37:13.914Z,17.30
2017-09-02T12:39:41.534Z,16.80
2017-09-02T12:42:09.167Z,16.60
2017-09-02T12:44:36.796Z,16.50
2017-09-02T12:47:04.758Z,16.50
2017-09-02T12:49:32.361Z,16.70
2017-09-02T12:51:59.979Z,16.90
2017-09-02T12:54:28.059Z,17.10
2017-09-02T12:56:55.696Z,17.10
2017-09-02T12:59:23.306Z,17.10
2017-09-02T13:01:51.291Z,16.90
2017-09-02T13:04:18.921Z,16.80
2017-09-02T13:06:46.531Z,16.90
2017-09-02T13:09:15.253Z,17.00
2017-09-02T13:11:42.895Z,17.00
2017-09-02T13:14:10.551Z,17.00
2017-09-02T13:16:38.539Z,17.20
2017-09-02T13:19:06.157Z,17.20
2017-09-02T13:21:33.781Z,17.10
2017-09-02T13:24:01.757Z,17.10
2017-09-02T13:26:29.349Z,17.00
2017-09-02T13:28:56.979Z,17.00
2017-09-02T13:31:24.610Z,17.00
2017-09-02T13:33:52.202Z,16.70
2017-09-02T13:36:19.848Z,16.20
2017-09-02T13:38:47.476Z,15.90
2017-09-02T13:41:15.101Z,15.90
2017-09-02T13:43:42.713Z,16.10
2017-09-02T13:46:10.392Z,16.40
2017-09-02T13:48:38.047Z,16.70
2017-09-02T13:51:06.058Z,16.80
2017-09-02T13:53:33.662Z,17.10
2017-09-02T13:56:01.270Z,17.30
2017-09-02T13:58:28.956Z,17.60
2017-09-02T14:00:56.553Z,18.00
2017-09-02T14:03:24.182Z,18.20
2017-09-02T14:05:51.777Z,18.20
2017-09-02T14:08:19.483Z,18.30
2017-09-02T14:10:47.079Z,18.40
2017-09-02T14:13:14.703Z,18.30
2017-09-02T14:15:42.329Z,18.30
2017-09-02T14:18:10.476Z,18.50
2017-09-02T14:20:38.117Z,18.70
2017-09-02T14:23:05.727Z,18.70
2017-09-02T14:25:33.361Z,18.80
2017-09-02T14:28:00.978Z,18.80
2017-09-02T14:30:28.619Z,18.80
2017-09-02T14:32:56.282Z,19.00
2017-09-02T14:35:24.276Z,19.10
2017-09-02T14:37:51.899Z,18.90
2017-09-02T14:40:19.555Z,18.80
2017-09-02T14:42:47.176Z,18.70
2017-09-02T14:45:15.250Z,18.50
2017-09-02T14:47:42.930Z,18.50
2017-09-02T14:50:10.518Z,18.70
2017-09-02T14:52:38.179Z,18.80
2017-09-02T14:55:05.792Z,18.80
2017-09-02T14:57:33.856Z,18.80
2017-09-02T15:00:01.471Z,18.80
2017-09-02T15:02:29.094Z,18.80
2017-09-02T15:04:56.726Z,18.80
2017-09-02T15:07:24.355Z,18.80
2017-09-02T15:09:52.516Z,18.90
2017-09-02T15:12:20.137Z,18.70
2017-09-02T15:14:47.749Z,18.60
2017-09-02T15:17:15.370Z,18.60
2017-09-02T15:19:42.973Z,18.60
2017-09-02T15:22:10.608Z,18.60
2017-09-02T15:24:38.272Z,18.50
2017-09-02T15:27:05.939Z,18.30
2017-09-02T15:29:33.548Z,18.20
2017-09-02T15:32:01.178Z,18.10
2017-09-02T15:34:28.791Z,18.00
2017-09-02T15:36:56.860Z,17.80
2017-09-02T15:39:24.502Z,17.90
2017-09-02T15:41:52.129Z,18.00
2017-09-02T15:44:20.146Z,18.00
2017-09-02T15:46:47.819Z,18.00
2017-09-02T15:49:15.436Z,18.00
2017-09-02T15:51:43.430Z,18.10
2017-09-02T15:54:11.028Z,18.30
2017-09-02T15:56:38.639Z,18.50
2017-09-02T15:59:06.887Z,18.50
2017-09-02T16:01:34.506Z,18.60
2017-09-02T16:04:02.190Z,18.60
2017-09-02T16:06:29.797Z,18.60
2017-09-02T16:08:57.468Z,18.60
2017-09-02T16:11:25.079Z,18.50
2017-09-02T16:13:52.710Z,18.60
2017-09-02T16:16:20.374Z,18.60
2017-09-02T16:18:47.980Z,18.60
2017-09-02T16:21:15.607Z,18.50
2017-09-02T16:23:43.297Z,18.50
2017-09-02T16:26:10.889Z,18.50
2017-09-02T16:28:38.543Z,18.40
2017-09-02T16:31:06.144Z,18.40
2017-09-02T16:33:33.770Z,18.40
2017-09-02T16:36:01.386Z,18.30
2017-09-02T16:38:29.086Z,18.20
2017-09-02T16:40:56.744Z,18.20
2017-09-02T16:43:25.429Z,18.10
2017-09-02T16:45:53.095Z,18.10
2017-09-02T16:48:20.774Z,18.10
2017-09-02T16:50:48.393Z,18.10
2017-09-02T16:53:16.021Z,18.00
2017-09-02T16:55:43.646Z,18.00
2017-09-02T16:58:11.279Z,17.90
2017-09-02T17:00:38.899Z,17.90
2017-09-02T17:03:06.509Z,17.80
2017-09-02T17:05:34.479Z,17.80
2017-09-02T17:08:02.087Z,17.80
2017-09-02T17:10:29.725Z,17.70
2017-09-02T17:12:57.417Z,17.60
2017-09-02T17:15:25.021Z,17.50
2017-09-02T17:17:52.707Z,17.40
2017-09-02T17:20:20.347Z,17.50
2017-09-02T17:22:48.083Z,17.50
2017-09-02T17:25:15.694Z,17.50
2017-09-02T17:27:43.342Z,17.40
2017-09-02T17:30:10.952Z,17.30
2017-09-02T17:32:38.938Z,17.20
2017-09-02T17:35:06.553Z,17.20
2017-09-02T17:37:34.199Z,17.30
2017-09-02T17:40:01.835Z,17.30
2017-09-02T17:42:29.446Z,17.30
2017-09-02T17:44:57.072Z,17.30
2017-09-02T17:47:24.681Z,17.20
2017-09-02T17:49:52.294Z,17.20
2017-09-02T17:52:19.866Z,17.10
2017-09-02T17:54:47.484Z,17.10
2017-09-02T17:57:15.095Z,17.00
2017-09-02T17:59:43.074Z,16.80
2017-09-02T18:02:10.679Z,16.80
2017-09-02T18:04:38.289Z,16.70
2017-09-02T18:07:05.926Z,16.70
2017-09-02T18:09:34.155Z,16.70
2017-09-02T18:12:01.849Z,16.60
2017-09-02T18:14:29.449Z,16.60
2017-09-02T18:16:57.510Z,16.70
2017-09-02T18:19:25.115Z,16.70
2017-09-02T18:21:53.533Z,16.60
2017-09-02T18:24:21.170Z,16.60
2017-09-02T18:26:48.799Z,16.50
2017-09-02T18:29:16.425Z,16.50
2017-09-02T18:31:44.035Z,16.40
2017-09-02T18:34:11.662Z,16.40
2017-09-02T18:36:39.258Z,16.40
2017-09-02T18:39:07.378Z,16.40
2017-09-02T18:41:35.084Z,16.40
2017-09-02T18:44:02.771Z,16.40
2017-09-02T18:46:30.768Z,16.30
2017-09-02T18:48:58.384Z,16.30
2017-09-02T18:51:26.020Z,16.10
2017-09-02T18:53:54.059Z,16.00
2017-09-02T18:56:21.716Z,16.10
2017-09-02T18:58:49.382Z,16.20
2017-09-02T19:01:17.129Z,16.20
2017-09-02T19:03:44.775Z,16.20
2017-09-02T19:06:12.811Z,16.20
2017-09-02T19:08:40.509Z,16.20
2017-09-02T19:11:08.170Z,16.20
2017-09-02T19:13:36.601Z,16.20
2017-09-02T19:16:04.319Z,16.20
2017-09-02T19:18:32.072Z,16.20
2017-09-02T19:20:59.782Z,16.20
2017-09-02T19:23:27.851Z,16.20
2017-09-02T19:25:55.600Z,16.00
2017-09-02T19:28:23.294Z,15.90
2017-09-02T19:30:50.935Z,15.80
2017-09-02T19:33:19.062Z,15.90
2017-09-02T19:35:46.733Z,15.70
2017-09-02T19:38:14.374Z,15.70
2017-09-02T19:40:42.096Z,15.80
2017-09-02T19:43:09.770Z,15.90
2017-09-02T19:45:37.543Z,15.90
2017-09-02T19:48:05.297Z,15.90
2017-09-02T19:50:33.343Z,16.00
2017-09-02T19:53:00.971Z,15.90
2017-09-02T19:55:28.656Z,15.90
2017-09-02T19:57:56.369Z,15.80
2017-09-02T20:00:24.087Z,15.80
2017-09-02T20:02:51.855Z,15.90
2017-09-02T20:05:19.545Z,15.90
2017-09-02T20:07:47.286Z,15.80
2017-09-02T20:10:14.913Z,15.80
2017-09-02T20:12:42.920Z,15.80
2017-09-02T20:15:10.584Z,15.90
2017-09-02T20:17:38.261Z,15.60
2017-09-02T20:20:06.011Z,15.60
2017-09-02T20:22:33.721Z,15.60
2017-09-02T20:25:01.445Z,15.70
2017-09-02T20:27:29.168Z,15.80
2017-09-02T20:29:57.630Z,15.80
2017-09-02T20:32:25.262Z,15.80
2017-09-02T20:34:52.987Z,15.80
2017-09-02T20:37:20.693Z,15.90
2017-09-02T20:39:48.304Z,15.90
2017-09-02T20:42:15.934Z,15.80
2017-09-02T20:44:43.543Z,15.70
2017-09-02T20:47:11.509Z,15.70
2017-09-02T20:49:39.156Z,15.70
2017-09-02T20:52:06.771Z,15.60
2017-09-02T20:54:34.781Z,15.70
2017-09-02T20:57:02.384Z,15.60
2017-09-02T20:59:29.996Z,15.50
2017-09-02T21:01:58.053Z,15.60
2017-09-02T21:04:25.661Z,15.70
2017-09-02T21:06:53.262Z,15.70
2017-09-02T21:09:21.348Z,15.70
2017-09-02T21:11:48.960Z,15.80
2017-09-02T21:14:16.631Z,15.60
2017-09-02T21:16:44.612Z,15.50
2017-09-02T21:19:12.226Z,15.50
2017-09-02T21:21:39.842Z,15.50
2017-09-02T21:24:07.929Z,15.50
2017-09-02T21:26:35.531Z,15.60
2017-09-02T21:29:03.139Z,15.60
2017-09-02T21:31:31.229Z,15.60
2017-09-02T21:33:58.905Z,15.70
2017-09-02T21:36:26.564Z,15.70
2017-09-02T21:38:54.206Z,15.60
2017-09-02T21:41:21.826Z,15.60
2017-09-02T21:43:49.457Z,15.60
2017-09-02T21:46:17.060Z,15.70
2017-09-02T21:48:44.693Z,15.70
2017-09-02T21:51:12.286Z,15.70
2017-09-02T21:53:40.277Z,15.70
2017-09-02T21:56:07.879Z,15.60
2017-09-02T21:58:35.474Z,15.60
2017-09-02T22:01:03.476Z,15.60
2017-09-02T22:03:31.073Z,15.60
2017-09-02T22:05:58.685Z,15.60
2017-09-02T22:08:26.628Z,15.60
2017-09-02T22:10:54.230Z,15.60
2017-09-02T22:13:21.842Z,15.60
2017-09-02T22:15:49.863Z,15.60
2017-09-02T22:18:17.489Z,15.60
2017-09-02T22:20:45.111Z,15.60
2017-09-02T22:23:13.144Z,15.50
2017-09-02T22:25:40.741Z,15.30
2017-09-02T22:28:08.338Z,15.30
